Middle Wallop, United Kingdom
Current Conditions -  °F | °C
As of 8:50 AM on Wednesday 28 Jan 2015 (Local Time) from EGVP Reporting Station
Broken Clouds Broken Clouds  
Wind Chill: 10°   Ceiling: 1000
Heat Index: 10°   Visibility: 6mi
Dew Point:   Wind: 16mph
Humidity: 87%   Direction: 230°SW
Pressure: 29.65"   Gusts: NA
Location:  51.15°N, 1.57°W
Report Text: EGVP 280850Z 23014KT 9999 FEW008 BKN010 BKN014 10/08 Q1004 GRN BECMG BKN020 WHT
Loading
Personal Weather Stations






























Interactive Weather Map New forecast layout! Learn more

10-Day Weather Forecast

Advertisements
Track Severe Weather on mobile